Time;durP1;ratioP1;P1;durP2;ratioP2;P2;SDS_P1;SDS_P2;PMS_P1;PMS_P2;Temp;Humidity;BMP_temperature;BMP_pressure;BME280_temperature;BME280_humidity;BME280_pressure;Samples;Min_cycle;Max_cycle;Signal;HPM_P1;HPM_P2
2023/07/16 00:00:11;;;;;;;;;;;18.50;99.90;;;;;;5141296;27;19926;-47
2023/07/16 00:02:37;;;;;;;;;;;18.40;99.90;;;;;;5141289;27;19980;-48
2023/07/16 00:05:03;;;;;;;;;;;18.40;99.90;;;;;;5141241;27;19920;-47
2023/07/16 00:07:29;;;;;;;;;;;18.30;99.90;;;;;;5141205;27;19923;-47
2023/07/16 00:09:54;;;;;;;;;;;18.30;99.90;;;;;;5141020;27;19949;-47
2023/07/16 00:12:21;;;;;;;;;;;18.30;99.90;;;;;;5137099;27;19959;-47
2023/07/16 00:14:47;;;;;;;;;;;18.30;99.90;;;;;;5119426;27;19962;-48
2023/07/16 00:17:13;;;;;;;;;;;18.30;99.90;;;;;;5137895;27;20016;-47
2023/07/16 00:19:38;;;;;;;;;;;18.30;99.90;;;;;;5137823;27;19927;-48
2023/07/16 00:22:04;;;;;;;;;;;18.20;99.90;;;;;;5137779;27;19919;-46
2023/07/16 00:24:29;;;;;;;;;;;18.20;99.90;;;;;;5137753;27;20009;-48
2023/07/16 00:26:55;;;;;;;;;;;18.20;99.90;;;;;;5138096;27;19919;-47
2023/07/16 00:29:20;;;;;;;;;;;18.20;99.90;;;;;;5137656;27;20372;-48
2023/07/16 00:31:46;;;;;;;;;;;18.20;99.90;;;;;;5119626;27;20271;-47
2023/07/16 00:34:13;;;;;;;;;;;18.20;99.90;;;;;;5137421;27;19919;-47
2023/07/16 00:36:38;;;;;;;;;;;18.10;99.90;;;;;;5137359;27;20006;-47
2023/07/16 00:39:04;;;;;;;;;;;18.10;99.90;;;;;;5137345;27;20358;-47
2023/07/16 00:41:29;;;;;;;;;;;18.10;99.90;;;;;;5137133;27;20030;-47
2023/07/16 00:43:55;;;;;;;;;;;18.10;99.90;;;;;;5137383;27;19919;-46
2023/07/16 00:46:21;;;;;;;;;;;18.10;99.90;;;;;;5137409;27;19919;-47
2023/07/16 00:48:46;;;;;;;;;;;18.10;99.90;;;;;;5137289;27;19919;-47
2023/07/16 00:51:13;;;;;;;;;;;18.00;99.90;;;;;;5119006;27;19919;-46
2023/07/16 00:53:40;;;;;;;;;;;18.00;99.90;;;;;;5118705;27;19926;-47
2023/07/16 00:56:07;;;;;;;;;;;18.00;99.90;;;;;;5136905;27;20372;-47
2023/07/16 00:58:32;;;;;;;;;;;18.00;99.90;;;;;;5137168;27;20297;-47
2023/07/16 01:00:58;;;;;;;;;;;18.00;99.90;;;;;;5137005;27;19931;-47
2023/07/16 01:03:23;;;;;;;;;;;18.00;99.90;;;;;;5136925;27;19941;-47
2023/07/16 01:05:49;;;;;;;;;;;17.90;99.90;;;;;;5137066;27;19919;-47
2023/07/16 01:08:18;;;;;;;;;;;17.90;99.90;;;;;;5136883;27;20340;-50
2023/07/16 01:10:44;;;;;;;;;;;17.90;99.90;;;;;;5136434;27;20291;-47
2023/07/16 01:13:10;;;;;;;;;;;17.90;99.90;;;;;;5136758;27;19919;-47
2023/07/16 01:15:35;;;;;;;;;;;17.90;99.90;;;;;;5136779;27;19919;-48
2023/07/16 01:18:03;;;;;;;;;;;17.90;99.90;;;;;;5118899;27;19919;-47
2023/07/16 01:20:28;;;;;;;;;;;17.90;99.90;;;;;;5136635;27;20014;-48
2023/07/16 01:23:06;;;;;;;;;;;17.90;99.90;;;;;;5136164;27;19969;-47
2023/07/16 01:25:39;;;;;;;;;;;17.90;99.90;;;;;;5136597;27;19919;-47
2023/07/16 01:28:08;;;;;;;;;;;17.90;99.90;;;;;;5136514;27;19927;-49
2023/07/16 01:30:36;;;;;;;;;;;17.90;99.90;;;;;;5136674;27;19970;-46
2023/07/16 01:33:03;;;;;;;;;;;17.90;99.90;;;;;;5136166;27;19927;-47
2023/07/16 01:35:29;;;;;;;;;;;17.90;99.90;;;;;;5136327;27;20085;-46
2023/07/16 01:37:55;;;;;;;;;;;18.00;99.90;;;;;;5136359;27;20374;-47
2023/07/16 01:40:20;;;;;;;;;;;18.00;99.90;;;;;;5136249;27;19926;-47
2023/07/16 01:42:46;;;;;;;;;;;17.90;99.90;;;;;;5136421;27;19919;-47
2023/07/16 01:45:11;;;;;;;;;;;17.90;99.90;;;;;;5136613;27;19927;-50
2023/07/16 01:47:43;;;;;;;;;;;18.00;99.90;;;;;;5136054;27;20443;-46
2023/07/16 01:50:09;;;;;;;;;;;18.00;99.90;;;;;;5135963;27;19923;-47
2023/07/16 01:52:34;;;;;;;;;;;18.00;99.90;;;;;;5135961;27;20267;-46
2023/07/16 01:55:00;;;;;;;;;;;17.90;99.90;;;;;;5135875;27;19964;-47
2023/07/16 01:57:25;;;;;;;;;;;17.90;99.90;;;;;;5135922;27;19923;-47
2023/07/16 01:59:51;;;;;;;;;;;17.90;99.90;;;;;;5135953;27;19954;-48
2023/07/16 02:02:16;;;;;;;;;;;17.90;99.90;;;;;;5135883;27;19919;-47
2023/07/16 02:04:42;;;;;;;;;;;17.90;99.90;;;;;;5135666;27;20372;-48
2023/07/16 02:07:08;;;;;;;;;;;17.90;99.90;;;;;;5135760;27;20344;-46
2023/07/16 02:09:34;;;;;;;;;;;17.90;99.90;;;;;;5135475;27;19927;-46
2023/07/16 02:11:59;;;;;;;;;;;17.90;99.90;;;;;;5135746;27;20010;-48
2023/07/16 02:14:25;;;;;;;;;;;17.80;99.90;;;;;;5135675;27;20014;-47
2023/07/16 02:16:50;;;;;;;;;;;17.80;99.90;;;;;;5135575;27;20371;-46
2023/07/16 02:19:16;;;;;;;;;;;17.80;99.90;;;;;;5135500;27;20260;-47
2023/07/16 02:21:41;;;;;;;;;;;17.80;99.90;;;;;;5117465;27;19926;-47
2023/07/16 02:24:07;;;;;;;;;;;17.70;99.90;;;;;;5135838;27;19926;-47
2023/07/16 02:26:32;;;;;;;;;;;17.70;99.90;;;;;;5135365;27;20022;-47
2023/07/16 02:28:59;;;;;;;;;;;17.70;99.90;;;;;;5135377;27;19929;-47
2023/07/16 02:31:24;;;;;;;;;;;17.70;99.90;;;;;;5135189;27;19926;-46
2023/07/16 02:33:50;;;;;;;;;;;17.70;99.90;;;;;;5134348;27;19919;-47
2023/07/16 02:36:15;;;;;;;;;;;17.70;99.90;;;;;;5135163;27;19919;-46
2023/07/16 02:38:41;;;;;;;;;;;17.60;99.90;;;;;;5117125;27;19979;-46
2023/07/16 02:41:07;;;;;;;;;;;17.60;99.90;;;;;;5135206;27;20287;-47
2023/07/16 02:43:32;;;;;;;;;;;17.60;99.90;;;;;;5135173;27;19964;-46
2023/07/16 02:45:58;;;;;;;;;;;17.60;99.90;;;;;;5135070;27;20014;-46
2023/07/16 02:48:23;;;;;;;;;;;17.60;99.90;;;;;;5135008;27;19973;-48
2023/07/16 02:50:49;;;;;;;;;;;17.60;99.90;;;;;;5134981;27;19930;-46
2023/07/16 02:53:14;;;;;;;;;;;17.60;99.90;;;;;;5117008;27;19920;-47
2023/07/16 02:55:40;;;;;;;;;;;17.60;99.90;;;;;;5134964;27;19925;-47
2023/07/16 02:58:06;;;;;;;;;;;17.60;99.90;;;;;;5099590;28;19926;-46
2023/07/16 03:00:31;;;;;;;;;;;17.60;99.90;;;;;;5134816;28;19978;-48
2023/07/16 03:02:58;;;;;;;;;;;17.60;99.90;;;;;;5134995;28;20013;-48
2023/07/16 03:05:24;;;;;;;;;;;17.60;99.90;;;;;;5134706;28;19919;-48
2023/07/16 03:07:50;;;;;;;;;;;17.60;99.90;;;;;;5116666;28;19992;-47
2023/07/16 03:10:15;;;;;;;;;;;17.60;99.90;;;;;;5134640;28;19988;-46
2023/07/16 03:12:41;;;;;;;;;;;17.70;99.90;;;;;;5134649;28;19920;-46
2023/07/16 03:15:07;;;;;;;;;;;17.70;99.90;;;;;;5134736;28;19919;-47
2023/07/16 03:17:32;;;;;;;;;;;17.70;99.90;;;;;;5134774;28;19920;-47
2023/07/16 03:19:58;;;;;;;;;;;17.70;99.90;;;;;;5134573;28;19923;-49
2023/07/16 03:22:24;;;;;;;;;;;17.70;99.90;;;;;;5134751;28;19979;-48
2023/07/16 03:24:49;;;;;;;;;;;17.60;99.90;;;;;;5134680;28;19919;-46
2023/07/16 03:27:15;;;;;;;;;;;17.60;99.90;;;;;;5099462;28;19920;-47
2023/07/16 03:29:40;;;;;;;;;;;17.60;99.90;;;;;;5134662;28;19926;-47
2023/07/16 03:32:06;;;;;;;;;;;17.60;99.90;;;;;;5134594;28;19958;-46
2023/07/16 03:34:31;;;;;;;;;;;17.60;99.90;;;;;;5115995;28;19926;-47
2023/07/16 03:36:57;;;;;;;;;;;17.60;99.90;;;;;;5134691;28;20360;-47
2023/07/16 03:39:22;;;;;;;;;;;17.60;99.90;;;;;;5134549;28;20085;-46
2023/07/16 03:41:48;;;;;;;;;;;17.60;99.90;;;;;;5134508;28;20291;-47
2023/07/16 03:44:14;;;;;;;;;;;17.60;99.90;;;;;;5134591;28;19942;-47
2023/07/16 03:46:39;;;;;;;;;;;17.60;99.90;;;;;;5137437;27;19927;-47
2023/07/16 03:49:08;;;;;;;;;;;17.60;99.90;;;;;;5138154;27;20063;-47
2023/07/16 03:51:34;;;;;;;;;;;17.60;99.90;;;;;;5138172;27;20363;-48
2023/07/16 03:53:59;;;;;;;;;;;17.60;99.90;;;;;;5138340;27;19926;-55
2023/07/16 03:56:25;;;;;;;;;;;17.60;99.90;;;;;;5138330;27;19942;-46
2023/07/16 03:58:51;;;;;;;;;;;17.50;99.90;;;;;;5138102;27;19942;-47
2023/07/16 04:01:16;;;;;;;;;;;17.60;99.90;;;;;;5138239;27;19962;-47
2023/07/16 04:03:42;;;;;;;;;;;17.60;99.90;;;;;;5138020;27;20400;-46
2023/07/16 04:06:11;;;;;;;;;;;17.50;99.90;;;;;;5138125;27;19973;-47
2023/07/16 04:08:37;;;;;;;;;;;17.50;99.90;;;;;;5138116;27;19927;-46
2023/07/16 04:11:04;;;;;;;;;;;17.50;99.90;;;;;;5137773;27;19923;-46
2023/07/16 04:13:30;;;;;;;;;;;17.50;99.90;;;;;;5137785;27;19919;-46
2023/07/16 04:15:57;;;;;;;;;;;17.50;99.90;;;;;;5137740;27;19926;-49
2023/07/16 04:18:22;;;;;;;;;;;17.50;99.90;;;;;;5137660;27;19926;-46
2023/07/16 04:20:48;;;;;;;;;;;17.50;99.90;;;;;;5137876;27;19923;-46
2023/07/16 04:23:14;;;;;;;;;;;17.50;99.90;;;;;;5137796;27;19926;-46
2023/07/16 04:25:39;;;;;;;;;;;17.50;99.90;;;;;;5137760;27;19928;-46
2023/07/16 04:28:05;;;;;;;;;;;17.50;99.90;;;;;;5137654;27;19920;-46
2023/07/16 04:30:30;;;;;;;;;;;17.50;99.90;;;;;;5137661;27;20295;-49
2023/07/16 04:32:56;;;;;;;;;;;17.60;99.90;;;;;;5137499;27;19919;-46
2023/07/16 04:35:22;;;;;;;;;;;17.50;99.90;;;;;;5137638;27;20383;-47
2023/07/16 04:37:47;;;;;;;;;;;17.50;99.90;;;;;;5137516;27;20364;-49
2023/07/16 04:40:13;;;;;;;;;;;17.60;99.90;;;;;;5137556;27;19923;-47
2023/07/16 04:42:38;;;;;;;;;;;17.50;99.90;;;;;;5137465;27;20282;-47
2023/07/16 04:45:05;;;;;;;;;;;17.60;99.90;;;;;;5137236;27;19926;-46
2023/07/16 04:47:30;;;;;;;;;;;17.60;99.90;;;;;;5137195;27;19919;-47
2023/07/16 04:49:57;;;;;;;;;;;17.60;99.90;;;;;;5137602;27;19971;-47
2023/07/16 04:52:23;;;;;;;;;;;17.60;99.90;;;;;;5137331;27;19919;-46
2023/07/16 04:54:48;;;;;;;;;;;17.60;99.90;;;;;;5118877;27;19976;-47
2023/07/16 04:57:14;;;;;;;;;;;17.60;99.90;;;;;;5136298;27;19927;-46
2023/07/16 04:59:40;;;;;;;;;;;17.60;99.90;;;;;;5119003;27;19919;-46
2023/07/16 05:02:06;;;;;;;;;;;17.60;99.90;;;;;;5136841;27;19919;-49
2023/07/16 05:04:32;;;;;;;;;;;17.60;99.90;;;;;;5137136;27;20010;-46
2023/07/16 05:06:58;;;;;;;;;;;17.70;99.90;;;;;;5137043;27;20288;-46
2023/07/16 05:09:23;;;;;;;;;;;17.70;99.90;;;;;;5118678;27;19919;-46
2023/07/16 05:11:49;;;;;;;;;;;17.70;99.90;;;;;;5136821;27;19972;-47
2023/07/16 05:14:14;;;;;;;;;;;17.70;99.90;;;;;;5136573;27;19996;-46
2023/07/16 05:16:40;;;;;;;;;;;17.80;99.90;;;;;;5136671;27;19970;-46
2023/07/16 05:19:05;;;;;;;;;;;17.80;99.90;;;;;;5136685;27;20292;-46
2023/07/16 05:21:31;;;;;;;;;;;17.90;99.90;;;;;;5136709;27;20006;-46
2023/07/16 05:23:56;;;;;;;;;;;17.90;99.90;;;;;;5136591;27;19919;-46
2023/07/16 05:26:22;;;;;;;;;;;18.00;99.90;;;;;;5118514;27;20006;-46
2023/07/16 05:28:47;;;;;;;;;;;18.00;99.90;;;;;;5136606;27;19919;-46
2023/07/16 05:31:13;;;;;;;;;;;18.00;99.90;;;;;;5136226;27;20380;-45
2023/07/16 05:33:39;;;;;;;;;;;18.10;99.90;;;;;;5117934;27;19919;-47
2023/07/16 05:36:04;;;;;;;;;;;18.20;99.90;;;;;;5136853;27;19920;-47
2023/07/16 05:38:30;;;;;;;;;;;18.30;99.90;;;;;;5136349;27;20383;-48
2023/07/16 05:41:04;;;;;;;;;;;18.40;99.90;;;;;;5136180;27;20295;-46
2023/07/16 05:43:30;;;;;;;;;;;18.50;99.90;;;;;;5136077;27;20014;-46
2023/07/16 05:45:56;;;;;;;;;;;18.50;99.90;;;;;;5135961;27;20043;-46
2023/07/16 05:48:21;;;;;;;;;;;18.60;99.90;;;;;;5118143;27;20039;-47
2023/07/16 05:50:47;;;;;;;;;;;18.60;99.90;;;;;;5135904;27;19919;-47
2023/07/16 05:53:15;;;;;;;;;;;18.50;99.90;;;;;;5135986;27;19945;-47
2023/07/16 05:55:41;;;;;;;;;;;18.40;99.90;;;;;;5118164;27;19968;-49
2023/07/16 05:58:06;;;;;;;;;;;18.40;99.90;;;;;;5136062;27;20364;-47
2023/07/16 06:00:32;;;;;;;;;;;18.40;99.90;;;;;;5135645;27;19920;-47
2023/07/16 06:02:58;;;;;;;;;;;18.50;99.90;;;;;;5135896;27;19972;-48
2023/07/16 06:05:24;;;;;;;;;;;18.60;99.90;;;;;;5135827;27;19919;-46
2023/07/16 06:07:50;;;;;;;;;;;18.60;99.90;;;;;;5136088;27;19919;-48
2023/07/16 06:10:15;;;;;;;;;;;18.70;99.90;;;;;;5116401;27;19927;-47
2023/07/16 06:12:41;;;;;;;;;;;18.80;99.90;;;;;;5117584;27;19972;-47
2023/07/16 06:15:08;;;;;;;;;;;18.90;99.90;;;;;;5135514;27;19919;-46
2023/07/16 06:17:33;;;;;;;;;;;19.00;99.90;;;;;;5135641;27;19927;-45
2023/07/16 06:19:59;;;;;;;;;;;18.90;99.90;;;;;;5135513;27;19919;-46
2023/07/16 06:22:24;;;;;;;;;;;18.90;99.90;;;;;;5100617;27;19974;-48
2023/07/16 06:24:50;;;;;;;;;;;18.80;99.90;;;;;;5117045;27;20280;-46
2023/07/16 06:27:16;;;;;;;;;;;18.80;99.90;;;;;;5135369;27;19919;-47
2023/07/16 06:29:41;;;;;;;;;;;18.80;99.90;;;;;;5135179;27;19963;-46
2023/07/16 06:32:07;;;;;;;;;;;18.90;99.90;;;;;;5117093;27;19990;-46
2023/07/16 06:34:32;;;;;;;;;;;18.90;99.90;;;;;;5135305;27;19919;-47
2023/07/16 06:36:58;;;;;;;;;;;18.90;99.90;;;;;;5135267;27;19929;-47
2023/07/16 06:39:24;;;;;;;;;;;18.80;99.90;;;;;;5135284;27;19927;-51
2023/07/16 06:41:49;;;;;;;;;;;18.80;99.90;;;;;;5135006;27;19926;-46
2023/07/16 06:44:15;;;;;;;;;;;18.70;99.90;;;;;;5116756;27;19919;-46
2023/07/16 06:46:40;;;;;;;;;;;18.70;99.90;;;;;;5135152;27;20043;-47
2023/07/16 06:49:07;;;;;;;;;;;18.60;99.90;;;;;;5134854;27;19942;-46
2023/07/16 06:51:32;;;;;;;;;;;18.60;99.90;;;;;;5135271;27;19987;-46
2023/07/16 06:53:58;;;;;;;;;;;18.60;99.90;;;;;;5134919;27;20353;-47
2023/07/16 06:56:24;;;;;;;;;;;18.60;99.90;;;;;;5135212;27;19920;-46
2023/07/16 06:58:49;;;;;;;;;;;18.60;99.90;;;;;;5134896;27;19920;-48
2023/07/16 07:01:15;;;;;;;;;;;18.60;99.90;;;;;;5135024;28;19972;-47
2023/07/16 07:03:40;;;;;;;;;;;18.60;99.90;;;;;;5135042;28;19920;-48
2023/07/16 07:06:06;;;;;;;;;;;18.70;99.90;;;;;;5116406;28;19964;-47
2023/07/16 07:08:32;;;;;;;;;;;18.70;99.90;;;;;;5134995;28;19926;-47
2023/07/16 07:10:58;;;;;;;;;;;18.80;99.90;;;;;;5113278;28;19942;-48
2023/07/16 07:13:24;;;;;;;;;;;18.70;99.90;;;;;;5114127;28;19919;-46
2023/07/16 07:15:49;;;;;;;;;;;18.70;99.90;;;;;;5114249;28;20415;-46
2023/07/16 07:18:15;;;;;;;;;;;18.80;99.90;;;;;;5096348;28;19963;-47
2023/07/16 07:20:40;;;;;;;;;;;18.80;99.90;;;;;;5115810;28;19926;-46
2023/07/16 07:23:07;;;;;;;;;;;19.00;99.90;;;;;;5118473;28;20432;-47
2023/07/16 07:25:32;;;;;;;;;;;19.10;99.90;;;;;;5118458;28;19920;-47
2023/07/16 07:27:58;;;;;;;;;;;19.20;99.90;;;;;;5118195;28;19931;-45
2023/07/16 07:30:24;;;;;;;;;;;19.30;99.90;;;;;;5118051;28;19923;-47
2023/07/16 07:32:49;;;;;;;;;;;19.30;99.90;;;;;;5117942;28;19924;-47
2023/07/16 07:35:15;;;;;;;;;;;19.30;99.90;;;;;;5118295;28;19919;-47
2023/07/16 07:37:40;;;;;;;;;;;19.40;99.90;;;;;;5117981;28;19920;-46
2023/07/16 07:40:07;;;;;;;;;;;19.40;99.90;;;;;;5116988;28;19967;-47
2023/07/16 07:42:33;;;;;;;;;;;19.30;99.90;;;;;;5117078;28;19927;-46
2023/07/16 07:44:58;;;;;;;;;;;19.20;99.90;;;;;;5117739;28;20041;-46
2023/07/16 07:47:24;;;;;;;;;;;19.10;99.90;;;;;;5118510;28;19967;-46
2023/07/16 07:49:50;;;;;;;;;;;18.90;99.90;;;;;;5117919;28;20286;-48
2023/07/16 07:52:16;;;;;;;;;;;18.80;99.90;;;;;;5116896;28;20375;-46
2023/07/16 07:54:42;;;;;;;;;;;18.80;99.90;;;;;;5117844;28;19926;-48
2023/07/16 07:57:07;;;;;;;;;;;18.80;99.90;;;;;;5116416;28;20403;-46
2023/07/16 07:59:33;;;;;;;;;;;18.80;99.90;;;;;;5117509;28;19927;-46
2023/07/16 08:01:58;;;;;;;;;;;18.80;99.90;;;;;;5117669;28;20081;-47
2023/07/16 08:04:24;;;;;;;;;;;18.80;99.90;;;;;;5117677;28;19927;-46
2023/07/16 08:06:50;;;;;;;;;;;18.80;99.90;;;;;;5117569;28;19972;-46
2023/07/16 08:09:16;;;;;;;;;;;18.80;99.90;;;;;;5117433;28;19950;-47
2023/07/16 08:11:42;;;;;;;;;;;18.80;99.90;;;;;;5135664;27;19919;-46
2023/07/16 08:14:07;;;;;;;;;;;18.80;99.90;;;;;;5137897;27;19995;-46
2023/07/16 08:16:33;;;;;;;;;;;18.80;99.90;;;;;;5119669;27;20493;-47
2023/07/16 08:18:58;;;;;;;;;;;18.90;99.90;;;;;;5137918;27;19923;-47
2023/07/16 08:21:24;;;;;;;;;;;19.00;99.90;;;;;;5137929;27;19920;-47
2023/07/16 08:23:50;;;;;;;;;;;19.10;99.90;;;;;;5137943;27;19966;-48
2023/07/16 08:26:16;;;;;;;;;;;19.20;99.90;;;;;;5137664;27;19967;-46
2023/07/16 08:28:41;;;;;;;;;;;19.10;99.90;;;;;;5137669;27;19919;-47
2023/07/16 08:31:07;;;;;;;;;;;19.10;99.90;;;;;;5085621;27;19926;-46
2023/07/16 08:33:32;;;;;;;;;;;19.10;99.90;;;;;;5136744;27;19920;-48
2023/07/16 08:35:58;;;;;;;;;;;19.00;99.90;;;;;;5137495;27;20010;-47
2023/07/16 08:38:24;;;;;;;;;;;18.90;99.90;;;;;;5119364;27;19919;-46
2023/07/16 08:40:49;;;;;;;;;;;18.80;99.90;;;;;;5119395;27;19919;-47
2023/07/16 08:43:16;;;;;;;;;;;18.70;99.90;;;;;;5137251;27;19919;-48
2023/07/16 08:45:44;;;;;;;;;;;18.60;99.90;;;;;;5137421;27;19920;-47
2023/07/16 08:48:10;;;;;;;;;;;18.50;99.90;;;;;;5137401;27;19923;-47
2023/07/16 08:50:36;;;;;;;;;;;18.40;99.90;;;;;;5119323;27;20023;-45
2023/07/16 08:53:06;;;;;;;;;;;18.40;99.90;;;;;;5119093;27;19927;-47
2023/07/16 08:55:31;;;;;;;;;;;18.40;99.90;;;;;;5137167;27;20406;-48
2023/07/16 08:57:57;;;;;;;;;;;18.40;99.90;;;;;;5137217;27;19973;-47
2023/07/16 09:00:25;;;;;;;;;;;18.50;99.90;;;;;;5137197;27;19919;-48
2023/07/16 09:02:55;;;;;;;;;;;18.60;99.90;;;;;;5118964;27;19926;-48
2023/07/16 09:05:20;;;;;;;;;;;18.70;99.90;;;;;;5119071;27;19926;-46
2023/07/16 09:07:46;;;;;;;;;;;18.70;99.90;;;;;;5118830;27;20006;-47
2023/07/16 09:10:12;;;;;;;;;;;18.90;99.90;;;;;;5136615;27;20005;-45
2023/07/16 09:12:47;;;;;;;;;;;19.10;99.90;;;;;;5118558;27;19965;-47
2023/07/16 09:15:16;;;;;;;;;;;19.10;99.90;;;;;;5136843;27;20021;-46
2023/07/16 09:17:41;;;;;;;;;;;19.30;99.90;;;;;;5118480;27;19942;-47
2023/07/16 09:20:08;;;;;;;;;;;19.40;99.90;;;;;;5136744;27;20356;-47
2023/07/16 09:22:34;;;;;;;;;;;19.40;99.90;;;;;;5136707;27;20295;-46
2023/07/16 09:24:59;;;;;;;;;;;19.50;99.90;;;;;;5136619;27;20303;-46
2023/07/16 09:27:28;;;;;;;;;;;19.50;99.90;;;;;;5136574;27;19972;-47
2023/07/16 09:29:54;;;;;;;;;;;19.60;99.90;;;;;;5137094;27;19919;-46
2023/07/16 09:32:20;;;;;;;;;;;19.60;99.90;;;;;;5136443;27;20348;-47
2023/07/16 09:34:48;;;;;;;;;;;19.70;99.90;;;;;;5136410;27;19919;-46
2023/07/16 09:37:14;;;;;;;;;;;19.80;99.90;;;;;;5136167;27;20428;-46
2023/07/16 09:39:41;;;;;;;;;;;19.80;99.90;;;;;;5136130;27;20014;-46
2023/07/16 09:42:07;;;;;;;;;;;19.80;99.90;;;;;;5136254;27;19919;-47
2023/07/16 09:44:33;;;;;;;;;;;19.80;99.90;;;;;;5135983;27;19926;-47
2023/07/16 09:46:58;;;;;;;;;;;19.80;99.90;;;;;;5136231;27;19931;-44
2023/07/16 09:49:28;;;;;;;;;;;19.90;99.90;;;;;;5136047;27;19972;-44
2023/07/16 09:51:55;;;;;;;;;;;19.90;99.90;;;;;;5135899;27;19943;-47
2023/07/16 09:54:20;;;;;;;;;;;20.00;99.90;;;;;;5135884;27;19927;-45
2023/07/16 09:56:48;;;;;;;;;;;20.10;99.90;;;;;;5136207;27;19919;-45
2023/07/16 09:59:19;;;;;;;;;;;20.20;99.90;;;;;;5135930;27;20355;-44
2023/07/16 10:01:45;;;;;;;;;;;20.20;99.90;;;;;;5117734;27;19919;-44
2023/07/16 10:04:17;;;;;;;;;;;20.30;99.90;;;;;;5135820;27;20394;-44
2023/07/16 10:06:49;;;;;;;;;;;20.30;99.90;;;;;;5135495;27;19973;-47
2023/07/16 10:09:30;;;;;;;;;;;20.30;99.90;;;;;;5117752;27;19979;-47
2023/07/16 10:12:06;;;;;;;;;;;20.20;99.90;;;;;;5135449;27;19919;-44
2023/07/16 10:14:32;;;;;;;;;;;20.20;99.90;;;;;;5117130;27;19919;-44
2023/07/16 10:17:01;;;;;;;;;;;20.20;99.90;;;;;;5135637;27;19919;-43
2023/07/16 10:19:26;;;;;;;;;;;20.30;99.90;;;;;;5135584;27;19920;-44
2023/07/16 10:21:52;;;;;;;;;;;20.40;99.90;;;;;;5117178;27;19919;-44
2023/07/16 10:24:20;;;;;;;;;;;20.30;99.90;;;;;;5117970;27;19972;-45
2023/07/16 10:26:46;;;;;;;;;;;20.30;99.90;;;;;;5117236;27;19919;-44
2023/07/16 10:29:14;;;;;;;;;;;20.30;99.90;;;;;;5117198;27;19919;-47
2023/07/16 10:31:39;;;;;;;;;;;20.30;99.90;;;;;;5117063;27;19920;-44
2023/07/16 10:34:05;;;;;;;;;;;20.40;99.90;;;;;;5135011;27;19926;-45
2023/07/16 10:36:36;;;;;;;;;;;20.40;99.90;;;;;;5100350;27;19923;-44
2023/07/16 10:39:03;;;;;;;;;;;20.40;99.90;;;;;;5135420;27;19919;-44
2023/07/16 10:41:30;;;;;;;;;;;20.60;99.90;;;;;;5117038;27;19945;-44
2023/07/16 10:43:56;;;;;;;;;;;20.70;99.90;;;;;;5135113;27;19926;-45
2023/07/16 10:46:21;;;;;;;;;;;20.60;99.90;;;;;;5134782;27;20013;-45
2023/07/16 10:48:47;;;;;;;;;;;20.60;99.90;;;;;;5135158;27;19954;-47
2023/07/16 10:51:16;;;;;;;;;;;20.50;99.90;;;;;;5135116;27;19983;-47
2023/07/16 10:53:42;;;;;;;;;;;20.40;99.90;;;;;;5135325;27;19923;-45
2023/07/16 10:56:08;;;;;;;;;;;20.30;99.90;;;;;;5134333;27;19929;-46
2023/07/16 10:58:36;;;;;;;;;;;20.30;99.90;;;;;;5116568;28;20387;-44
2023/07/16 11:01:01;;;;;;;;;;;20.30;99.90;;;;;;5134885;28;19927;-44
2023/07/16 11:03:27;;;;;;;;;;;20.40;99.90;;;;;;5134942;28;20272;-45
2023/07/16 11:05:53;;;;;;;;;;;20.50;99.90;;;;;;5134956;28;20014;-44
2023/07/16 11:08:22;;;;;;;;;;;20.50;99.90;;;;;;5135099;28;20035;-43
2023/07/16 11:10:53;;;;;;;;;;;20.50;99.90;;;;;;5134899;28;20267;-44
2023/07/16 11:13:18;;;;;;;;;;;20.50;99.90;;;;;;5134733;28;19919;-44
2023/07/16 11:15:44;;;;;;;;;;;20.60;99.90;;;;;;5134823;28;19925;-44
2023/07/16 11:18:09;;;;;;;;;;;20.70;99.90;;;;;;5134868;28;19928;-44
2023/07/16 11:20:35;;;;;;;;;;;20.80;99.90;;;;;;5134831;28;19919;-45
2023/07/16 11:23:01;;;;;;;;;;;20.70;99.90;;;;;;5116728;28;19925;-43
2023/07/16 11:25:27;;;;;;;;;;;20.80;99.90;;;;;;5134664;28;19919;-45
2023/07/16 11:27:54;;;;;;;;;;;20.70;99.90;;;;;;5134801;28;19920;-46
2023/07/16 11:30:22;;;;;;;;;;;20.80;99.90;;;;;;5134664;28;19919;-45
2023/07/16 11:32:48;;;;;;;;;;;20.80;99.90;;;;;;5134776;28;19948;-44
2023/07/16 11:35:18;;;;;;;;;;;20.80;99.90;;;;;;5134615;28;19920;-44
2023/07/16 11:37:44;;;;;;;;;;;20.70;99.90;;;;;;5116215;28;19962;-45
2023/07/16 11:40:10;;;;;;;;;;;20.60;99.90;;;;;;5116699;28;19923;-45
2023/07/16 11:42:37;;;;;;;;;;;20.60;99.90;;;;;;5134457;28;20457;-45
2023/07/16 11:45:03;;;;;;;;;;;20.50;99.90;;;;;;5134651;28;19927;-44
2023/07/16 11:47:29;;;;;;;;;;;20.50;99.90;;;;;;5134672;28;19924;-46
2023/07/16 11:49:54;;;;;;;;;;;20.50;99.90;;;;;;5116213;28;19926;-45
2023/07/16 11:52:27;;;;;;;;;;;20.70;99.90;;;;;;5134490;28;20018;-47
2023/07/16 11:54:53;;;;;;;;;;;20.90;99.90;;;;;;5134178;28;19978;-46
2023/07/16 11:57:19;;;;;;;;;;;21.10;99.90;;;;;;5134079;28;19948;-46
2023/07/16 11:59:45;;;;;;;;;;;21.20;99.90;;;;;;5134427;28;19919;-45
2023/07/16 12:02:10;;;;;;;;;;;21.10;99.90;;;;;;5134469;28;19919;-45
2023/07/16 12:04:36;;;;;;;;;;;21.00;99.90;;;;;;5134153;28;19925;-45
2023/07/16 12:07:02;;;;;;;;;;;20.90;99.90;;;;;;5136140;27;19927;-45
2023/07/16 12:09:28;;;;;;;;;;;20.70;99.90;;;;;;5138090;27;19927;-45
2023/07/16 12:11:53;;;;;;;;;;;20.60;99.90;;;;;;5137823;27;19919;-46
2023/07/16 12:14:19;;;;;;;;;;;20.50;99.90;;;;;;5137964;27;19926;-45
2023/07/16 12:16:44;;;;;;;;;;;20.40;99.90;;;;;;5137977;27;20260;-45
2023/07/16 12:19:10;;;;;;;;;;;20.30;99.90;;;;;;5137972;27;19972;-46
2023/07/16 12:21:36;;;;;;;;;;;20.20;99.90;;;;;;5120197;27;19927;-47
2023/07/16 12:24:02;;;;;;;;;;;20.30;99.90;;;;;;5137809;27;20017;-44
2023/07/16 12:26:27;;;;;;;;;;;20.40;99.90;;;;;;5137708;27;20014;-44
2023/07/16 12:28:56;;;;;;;;;;;20.60;99.90;;;;;;5137784;27;19996;-45
2023/07/16 12:31:21;;;;;;;;;;;20.80;99.90;;;;;;5119421;27;20384;-46
2023/07/16 12:33:47;;;;;;;;;;;20.80;99.90;;;;;;5137592;27;19965;-47
2023/07/16 12:36:13;;;;;;;;;;;20.80;99.90;;;;;;5137663;27;19923;-49
2023/07/16 12:38:38;;;;;;;;;;;20.80;99.90;;;;;;5137330;27;19923;-48
2023/07/16 12:41:05;;;;;;;;;;;20.60;99.90;;;;;;5137087;27;19919;-53
2023/07/16 12:43:33;;;;;;;;;;;20.50;99.90;;;;;;5137539;27;19919;-48
2023/07/16 12:46:03;;;;;;;;;;;20.50;99.90;;;;;;5137399;27;19930;-48
2023/07/16 12:48:29;;;;;;;;;;;20.50;99.90;;;;;;5137239;27;20464;-47
2023/07/16 12:50:55;;;;;;;;;;;20.40;99.90;;;;;;5137345;27;19920;-46
2023/07/16 12:53:21;;;;;;;;;;;20.40;99.90;;;;;;5137162;27;19970;-47
2023/07/16 12:55:46;;;;;;;;;;;20.30;99.90;;;;;;5137104;27;20017;-45
2023/07/16 12:58:12;;;;;;;;;;;20.30;99.90;;;;;;5137167;27;19927;-46
2023/07/16 13:00:37;;;;;;;;;;;20.30;99.90;;;;;;5119053;27;19920;-46
2023/07/16 13:03:04;;;;;;;;;;;20.30;99.90;;;;;;5137097;27;20064;-45
2023/07/16 13:05:30;;;;;;;;;;;20.40;99.90;;;;;;5137021;27;20002;-48
2023/07/16 13:07:55;;;;;;;;;;;20.40;99.90;;;;;;5137048;27;19926;-46
2023/07/16 13:10:21;;;;;;;;;;;20.40;99.90;;;;;;5136601;27;19919;-45
2023/07/16 13:12:46;;;;;;;;;;;20.40;99.90;;;;;;5137473;27;19970;-48
2023/07/16 13:15:12;;;;;;;;;;;20.30;99.90;;;;;;5136770;27;20253;-45
2023/07/16 13:17:38;;;;;;;;;;;20.30;99.90;;;;;;5136221;27;19919;-46
2023/07/16 13:20:04;;;;;;;;;;;20.30;99.90;;;;;;5136147;27;19919;-46
2023/07/16 13:22:30;;;;;;;;;;;20.20;99.90;;;;;;5136758;27;19919;-47
2023/07/16 13:24:56;;;;;;;;;;;20.20;99.90;;;;;;5118437;27;20409;-45
2023/07/16 13:27:22;;;;;;;;;;;20.20;99.90;;;;;;5136611;27;19919;-45
2023/07/16 13:29:47;;;;;;;;;;;20.30;99.90;;;;;;5136597;27;20459;-44
2023/07/16 13:32:13;;;;;;;;;;;20.20;99.90;;;;;;5136526;27;20009;-45
2023/07/16 13:34:38;;;;;;;;;;;20.20;99.90;;;;;;5136412;27;20249;-47
2023/07/16 13:37:04;;;;;;;;;;;20.30;99.90;;;;;;5136405;27;19919;-45
2023/07/16 13:39:29;;;;;;;;;;;20.50;99.90;;;;;;5136065;27;19920;-47
2023/07/16 13:41:55;;;;;;;;;;;20.70;99.90;;;;;;5136413;27;19919;-45
2023/07/16 13:44:21;;;;;;;;;;;20.80;99.90;;;;;;5101204;27;19967;-45
2023/07/16 13:46:47;;;;;;;;;;;20.90;99.90;;;;;;5136224;27;20010;-46
2023/07/16 13:49:13;;;;;;;;;;;21.00;99.90;;;;;;5136106;27;19978;-45
2023/07/16 13:51:39;;;;;;;;;;;21.20;99.90;;;;;;5136116;27;19924;-45
2023/07/16 13:54:04;;;;;;;;;;;21.20;99.90;;;;;;5135934;27;20321;-45
2023/07/16 13:56:30;;;;;;;;;;;21.20;99.90;;;;;;5135767;27;19920;-44
2023/07/16 13:58:56;;;;;;;;;;;21.40;99.90;;;;;;5136029;27;19920;-45
2023/07/16 14:01:22;;;;;;;;;;;21.60;99.90;;;;;;5135990;27;19926;-46
2023/07/16 14:03:47;;;;;;;;;;;21.80;99.90;;;;;;5136052;27;19920;-45
2023/07/16 14:06:13;;;;;;;;;;;21.90;99.90;;;;;;5135755;27;20406;-46
2023/07/16 14:08:39;;;;;;;;;;;21.90;99.90;;;;;;5135699;27;19924;-48